Time;durP1;ratioP1;P1;durP2;ratioP2;P2;SDS_P1;SDS_P2;PMS_P1;PMS_P2;Temp;Humidity;BMP_temperature;BMP_pressure;BME280_temperature;BME280_humidity;BME280_pressure;Samples;Min_cycle;Max_cycle;Signal;HPM_P1;HPM_P2
2023/07/16 00:01:04;;;;;;;2.30;0.80;;;19.30;77.20;;;;;;4939723;28;20138;-18
2023/07/16 00:03:30;;;;;;;2.50;1.10;;;19.30;77.30;;;;;;4967192;28;20062;-18
2023/07/16 00:05:55;;;;;;;1.70;0.90;;;19.30;77.40;;;;;;4969890;28;20109;-18
2023/07/16 00:08:22;;;;;;;2.93;0.97;;;19.30;77.50;;;;;;4974581;28;20474;-18
2023/07/16 00:10:47;;;;;;;2.17;0.80;;;19.30;77.70;;;;;;4954334;28;20275;-17
2023/07/16 00:13:13;;;;;;;3.50;0.90;;;19.30;77.70;;;;;;4967826;28;20034;-17
2023/07/16 00:15:39;;;;;;;3.00;0.90;;;19.30;77.80;;;;;;4937325;28;20945;-18
2023/07/16 00:18:05;;;;;;;1.80;0.90;;;19.30;77.80;;;;;;4967979;28;20625;-17
2023/07/16 00:20:32;;;;;;;2.00;0.90;;;19.30;77.80;;;;;;4966332;28;20045;-18
2023/07/16 00:22:58;;;;;;;2.83;1.10;;;19.30;77.80;;;;;;4954729;28;22016;-17
2023/07/16 00:25:24;;;;;;;2.47;1.00;;;19.20;77.80;;;;;;4956931;28;20042;-18
2023/07/16 00:27:49;;;;;;;1.57;0.90;;;19.30;78.00;;;;;;4962397;28;20609;-17
2023/07/16 00:30:15;;;;;;;1.45;0.90;;;19.30;78.00;;;;;;4964536;28;20026;-17
2023/07/16 00:32:41;;;;;;;2.43;1.00;;;19.30;78.10;;;;;;4935259;28;20069;-17
2023/07/16 00:35:07;;;;;;;1.48;0.90;;;19.20;78.20;;;;;;4946726;28;20042;-17
2023/07/16 00:37:34;;;;;;;3.80;1.10;;;19.20;78.30;;;;;;4967903;28;20385;-17
2023/07/16 00:40:00;;;;;;;2.17;1.00;;;19.20;78.40;;;;;;4971610;28;20325;-18
2023/07/16 00:42:26;;;;;;;2.53;1.00;;;19.10;78.50;;;;;;4968670;28;20137;-17
2023/07/16 00:44:52;;;;;;;3.08;0.90;;;19.10;78.60;;;;;;4961812;28;20045;-18
2023/07/16 00:47:18;;;;;;;2.97;0.90;;;19.10;78.70;;;;;;4954009;28;20058;-18
2023/07/16 00:49:44;;;;;;;1.88;1.00;;;19.10;78.70;;;;;;4970303;28;20485;-18
2023/07/16 00:52:16;;;;;;;2.38;1.00;;;19.00;78.80;;;;;;4960864;28;20027;-17
2023/07/16 00:54:42;;;;;;;2.85;1.10;;;19.00;79.20;;;;;;4958194;28;20060;-17
2023/07/16 00:57:08;;;;;;;3.00;1.00;;;19.00;79.00;;;;;;4959120;28;20019;-17
2023/07/16 00:59:34;;;;;;;1.80;0.80;;;19.00;79.00;;;;;;4967538;28;20378;-18
2023/07/16 01:01:59;;;;;;;2.30;0.88;;;19.00;79.20;;;;;;4939319;28;20102;-17
2023/07/16 01:04:25;;;;;;;3.00;1.07;;;18.90;79.20;;;;;;4980000;28;20027;-17
2023/07/16 01:06:53;;;;;;;2.25;0.90;;;18.90;79.30;;;;;;4965415;28;20046;-18
2023/07/16 01:09:20;;;;;;;1.57;0.90;;;18.90;79.40;;;;;;4969382;28;20071;-17
2023/07/16 01:11:47;;;;;;;3.10;0.90;;;18.90;79.30;;;;;;4960194;28;20101;-18
2023/07/16 01:14:16;;;;;;;3.15;0.90;;;18.80;79.50;;;;;;4966903;28;20019;-17
2023/07/16 01:16:42;;;;;;;2.63;0.90;;;18.80;79.60;;;;;;4967961;28;20046;-18
2023/07/16 01:19:08;;;;;;;3.97;1.15;;;18.80;79.70;;;;;;4938407;28;20187;-17
2023/07/16 01:22:12;;;;;;;1.70;1.00;;;18.80;79.80;;;;;;4964611;28;20140;-17
2023/07/16 01:25:05;;;;;;;2.03;1.10;;;18.80;80.50;;;;;;4956406;28;20050;-17
2023/07/16 01:27:42;;;;;;;3.58;0.93;;;18.70;80.70;;;;;;4960397;28;20030;-17
2023/07/16 01:30:11;;;;;;;1.65;0.90;;;18.70;80.40;;;;;;4962555;28;20406;-17
2023/07/16 01:32:37;;;;;;;4.25;1.00;;;18.70;80.00;;;;;;4965723;28;20085;-17
2023/07/16 01:35:05;;;;;;;2.93;0.93;;;18.70;80.10;;;;;;4942501;28;20146;-17
2023/07/16 01:37:32;;;;;;;3.00;0.88;;;18.60;80.20;;;;;;4972822;28;20385;-17
2023/07/16 01:39:58;;;;;;;2.38;0.90;;;18.60;80.20;;;;;;4960738;28;20675;-17
2023/07/16 01:42:24;;;;;;;2.80;1.15;;;18.60;80.20;;;;;;4985276;28;20033;-17
2023/07/16 01:44:49;;;;;;;3.53;1.00;;;18.60;80.20;;;;;;4961571;28;20047;-18
2023/07/16 01:47:40;;;;;;;2.60;0.90;;;18.60;80.20;;;;;;4963549;28;20034;-17
2023/07/16 01:50:07;;;;;;;2.58;1.05;;;18.60;80.60;;;;;;4940636;28;20325;-16
2023/07/16 01:52:33;;;;;;;3.27;0.93;;;18.60;80.30;;;;;;4970328;28;20038;-17
2023/07/16 01:54:58;;;;;;;2.08;1.05;;;18.50;81.10;;;;;;4979436;28;20156;-17
2023/07/16 01:57:24;;;;;;;3.90;1.10;;;18.50;80.30;;;;;;4959716;28;20101;-17
2023/07/16 01:59:49;;;;;;;2.70;1.23;;;18.50;80.20;;;;;;4959272;28;20034;-18
2023/07/16 02:02:15;;;;;;;4.43;1.40;;;18.50;80.20;;;;;;4966818;28;20525;-17
2023/07/16 02:04:41;;;;;;;4.45;1.30;;;18.50;80.20;;;;;;4963300;28;20040;-18
2023/07/16 02:07:07;;;;;;;3.60;1.30;;;18.50;80.10;;;;;;4940255;28;20133;-17
2023/07/16 02:09:35;;;;;;;2.85;1.30;;;18.50;80.00;;;;;;4969630;28;20030;-17
2023/07/16 02:12:00;;;;;;;3.58;1.50;;;18.50;79.90;;;;;;4957912;28;20216;-18
2023/07/16 02:14:26;;;;;;;3.13;1.40;;;18.50;79.70;;;;;;4963423;28;20115;-18
2023/07/16 02:16:52;;;;;;;4.28;1.50;;;18.50;79.60;;;;;;4967216;28;20022;-18
2023/07/16 02:19:17;;;;;;;5.37;1.60;;;18.50;80.20;;;;;;4967274;28;20054;-18
2023/07/16 02:21:43;;;;;;;4.78;1.60;;;18.50;79.40;;;;;;4957102;28;20078;-18
2023/07/16 02:24:09;;;;;;;5.13;1.40;;;18.50;79.20;;;;;;4941765;28;20085;-18
2023/07/16 02:26:35;;;;;;;2.63;1.40;;;18.50;79.00;;;;;;4961023;28;20514;-18
2023/07/16 02:29:01;;;;;;;4.28;1.55;;;18.50;78.90;;;;;;4975552;28;20687;-18
2023/07/16 02:31:26;;;;;;;3.37;1.60;;;18.50;78.80;;;;;;4967277;28;20177;-18
2023/07/16 02:33:52;;;;;;;3.80;1.50;;;18.40;78.60;;;;;;4968021;28;20468;-18
2023/07/16 02:36:18;;;;;;;2.40;1.37;;;18.40;78.60;;;;;;4967744;28;20042;-18
2023/07/16 02:38:43;;;;;;;3.38;1.33;;;18.40;78.60;;;;;;4939693;28;20031;-18
2023/07/16 02:41:09;;;;;;;4.03;1.50;;;18.40;78.50;;;;;;4961666;28;20045;-18
2023/07/16 02:43:35;;;;;;;3.43;1.67;;;18.40;78.50;;;;;;4958447;28;20050;-19
2023/07/16 02:46:00;;;;;;;4.37;1.70;;;18.40;78.40;;;;;;4960402;28;20552;-18
2023/07/16 02:48:26;;;;;;;3.13;1.33;;;18.30;78.30;;;;;;4964911;28;20045;-18
2023/07/16 02:50:52;;;;;;;3.42;1.60;;;18.30;78.40;;;;;;4970732;28;20064;-18
2023/07/16 02:53:18;;;;;;;6.03;1.60;;;18.20;78.30;;;;;;4939163;28;21515;-19
2023/07/16 02:55:45;;;;;;;4.53;1.47;;;18.20;78.40;;;;;;4965547;28;20023;-18
2023/07/16 02:58:11;;;;;;;4.15;1.80;;;18.20;78.40;;;;;;4956733;28;20042;-18
2023/07/16 03:00:36;;;;;;;3.43;1.57;;;18.20;78.40;;;;;;4963793;28;20109;-18
2023/07/16 03:03:02;;;;;;;3.90;1.55;;;18.20;78.40;;;;;;4968245;28;20777;-18
2023/07/16 03:05:28;;;;;;;3.10;1.50;;;18.20;78.40;;;;;;4967085;28;20346;-18
2023/07/16 03:07:55;;;;;;;4.20;1.80;;;18.10;78.40;;;;;;4969062;28;20293;-18
2023/07/16 03:10:22;;;;;;;3.70;1.80;;;18.10;78.30;;;;;;4935737;28;20542;-18
2023/07/16 03:12:48;;;;;;;5.07;1.90;;;18.10;78.30;;;;;;4982370;28;20200;-18
2023/07/16 03:15:13;;;;;;;3.97;1.70;;;18.10;78.30;;;;;;4949056;28;20057;-18
2023/07/16 03:17:39;;;;;;;4.00;1.90;;;18.10;78.20;;;;;;4980734;28;20037;-18
2023/07/16 03:20:05;;;;;;;5.30;2.10;;;18.10;78.20;;;;;;4966681;28;20584;-18
2023/07/16 03:22:31;;;;;;;3.88;1.90;;;18.10;78.10;;;;;;4964715;28;20141;-18
2023/07/16 03:24:57;;;;;;;3.78;1.90;;;18.10;78.10;;;;;;4941930;28;20034;-18
2023/07/16 03:27:23;;;;;;;3.60;1.88;;;18.20;78.10;;;;;;4979812;28;20426;-19
2023/07/16 03:29:49;;;;;;;2.80;1.73;;;18.20;78.00;;;;;;4956586;28;20066;-18
2023/07/16 03:32:14;;;;;;;3.58;1.95;;;18.20;77.80;;;;;;4958427;28;20478;-18
2023/07/16 03:34:40;;;;;;;4.00;1.73;;;18.20;77.80;;;;;;4964957;28;20034;-18
2023/07/16 03:37:06;;;;;;;4.00;1.70;;;18.20;77.70;;;;;;4966039;28;20050;-18
2023/07/16 03:39:32;;;;;;;4.63;2.17;;;18.20;77.60;;;;;;4938393;28;21272;-18
2023/07/16 03:41:57;;;;;;;3.85;2.00;;;18.20;77.70;;;;;;4966262;28;20026;-19
2023/07/16 03:44:23;;;;;;;4.00;1.90;;;18.20;77.50;;;;;;4956302;28;20025;-18
2023/07/16 03:46:49;;;;;;;3.53;1.83;;;18.20;77.50;;;;;;4963121;28;20026;-18
2023/07/16 03:49:15;;;;;;;4.30;2.15;;;18.20;77.40;;;;;;4964012;28;20089;-18
2023/07/16 03:51:40;;;;;;;3.93;1.83;;;18.20;77.50;;;;;;4978780;28;20101;-18
2023/07/16 03:54:06;;;;;;;5.38;2.10;;;18.20;77.50;;;;;;4956248;28;20037;-19
2023/07/16 03:56:32;;;;;;;5.00;2.13;;;18.20;77.50;;;;;;4945842;28;20513;-18
2023/07/16 03:58:57;;;;;;;5.30;2.07;;;18.20;77.40;;;;;;4967190;28;20385;-18
2023/07/16 04:01:23;;;;;;;5.10;2.00;;;18.20;77.50;;;;;;4944335;28;20132;-18
2023/07/16 04:03:49;;;;;;;5.22;2.20;;;18.20;78.10;;;;;;4965690;28;20030;-18
2023/07/16 04:06:15;;;;;;;4.80;2.20;;;18.20;77.50;;;;;;4964350;28;20698;-18
2023/07/16 04:08:40;;;;;;;3.35;2.05;;;18.20;77.40;;;;;;4963607;28;20058;-18
2023/07/16 04:11:06;;;;;;;3.90;1.77;;;18.20;77.50;;;;;;4937115;28;20033;-18
2023/07/16 04:13:33;;;;;;;5.25;2.40;;;18.20;77.50;;;;;;4962242;28;20078;-18
2023/07/16 04:15:59;;;;;;;4.22;2.22;;;18.30;77.30;;;;;;4954264;28;20378;-18
2023/07/16 04:18:25;;;;;;;5.07;2.22;;;18.30;77.30;;;;;;4961225;28;20159;-18
2023/07/16 04:20:51;;;;;;;5.63;2.60;;;18.30;77.40;;;;;;4967087;28;20033;-18
2023/07/16 04:23:17;;;;;;;4.40;2.38;;;18.30;77.30;;;;;;4962364;28;20602;-18
2023/07/16 04:25:42;;;;;;;5.88;2.40;;;18.30;77.30;;;;;;4938153;28;20033;-18
2023/07/16 04:28:09;;;;;;;4.20;1.90;;;18.30;77.50;;;;;;4963339;28;20479;-19
2023/07/16 04:30:37;;;;;;;4.50;2.28;;;18.30;77.40;;;;;;4954201;28;20518;-18
2023/07/16 04:33:03;;;;;;;4.65;2.20;;;18.30;77.30;;;;;;4946055;28;20015;-19
2023/07/16 04:35:29;;;;;;;6.15;2.38;;;18.30;77.30;;;;;;4967329;28;20152;-18
2023/07/16 04:37:55;;;;;;;4.33;2.27;;;18.30;77.30;;;;;;4978798;28;20030;-18
2023/07/16 04:40:20;;;;;;;4.43;2.17;;;18.30;77.30;;;;;;4934030;28;22019;-18
2023/07/16 04:42:46;;;;;;;4.30;1.93;;;18.30;77.40;;;;;;4981925;28;20050;-18
2023/07/16 04:45:13;;;;;;;4.55;2.00;;;18.30;77.40;;;;;;4962978;28;20045;-18
2023/07/16 04:47:38;;;;;;;5.32;2.50;;;18.30;77.30;;;;;;4963390;28;20065;-18
2023/07/16 04:50:05;;;;;;;4.17;2.20;;;18.30;77.40;;;;;;4966561;28;20489;-18
2023/07/16 04:52:31;;;;;;;4.25;2.40;;;18.30;77.50;;;;;;4961808;28;20171;-19
2023/07/16 04:54:57;;;;;;;5.55;2.17;;;18.30;77.30;;;;;;4964821;28;20034;-18
2023/07/16 04:57:22;;;;;;;4.03;2.17;;;18.40;77.40;;;;;;4932937;28;20299;-18
2023/07/16 04:59:48;;;;;;;3.85;1.95;;;18.30;77.40;;;;;;4961477;28;20653;-18
2023/07/16 05:02:16;;;;;;;5.37;2.10;;;18.40;77.50;;;;;;4951699;28;20045;-18
2023/07/16 05:04:43;;;;;;;4.47;2.20;;;18.40;77.50;;;;;;4945822;28;20030;-18
2023/07/16 05:07:09;;;;;;;5.00;2.10;;;18.40;77.40;;;;;;4963615;28;20053;-18
2023/07/16 05:09:35;;;;;;;7.63;2.80;;;18.40;77.20;;;;;;4969451;28;20142;-18
2023/07/16 05:12:02;;;;;;;5.70;2.90;;;18.40;77.10;;;;;;4935872;28;20384;-18
2023/07/16 05:14:28;;;;;;;7.18;2.50;;;18.50;77.20;;;;;;4970272;28;20498;-18
2023/07/16 05:16:54;;;;;;;3.72;2.30;;;18.50;77.20;;;;;;4956871;28;20031;-18
2023/07/16 05:19:20;;;;;;;4.93;2.30;;;18.50;77.10;;;;;;4958513;28;20837;-19
2023/07/16 05:21:46;;;;;;;4.77;2.13;;;18.50;77.20;;;;;;4964993;28;20324;-18
2023/07/16 05:24:11;;;;;;;5.20;2.33;;;18.50;77.10;;;;;;4973357;28;20464;-18
2023/07/16 05:26:38;;;;;;;6.67;2.80;;;18.50;77.20;;;;;;4948836;28;20047;-19
2023/07/16 05:29:03;;;;;;;7.13;2.72;;;18.60;77.20;;;;;;4962365;28;20101;-18
2023/07/16 05:31:29;;;;;;;5.40;2.80;;;18.60;77.20;;;;;;4969097;28;20027;-19
2023/07/16 05:33:55;;;;;;;5.97;2.80;;;18.60;77.10;;;;;;4951241;28;22528;-18
2023/07/16 05:36:20;;;;;;;5.23;2.80;;;18.60;77.10;;;;;;4963728;28;20070;-18
2023/07/16 05:38:46;;;;;;;7.05;2.90;;;18.70;77.20;;;;;;4950012;28;20594;-18
2023/07/16 05:41:12;;;;;;;6.87;3.37;;;18.70;77.20;;;;;;4970100;28;20038;-18
2023/07/16 05:43:38;;;;;;;5.45;2.80;;;18.70;77.10;;;;;;4942191;28;21631;-18
2023/07/16 05:46:05;;;;;;;6.05;3.00;;;18.70;77.20;;;;;;4966692;28;20229;-19
2023/07/16 05:48:31;;;;;;;6.73;3.03;;;18.70;77.10;;;;;;4974725;28;20501;-18
2023/07/16 05:50:56;;;;;;;5.57;2.58;;;18.80;77.10;;;;;;4951702;28;20023;-19
2023/07/16 05:53:22;;;;;;;5.68;2.50;;;18.80;77.30;;;;;;4961743;28;20026;-18
2023/07/16 05:55:49;;;;;;;5.88;3.13;;;18.80;77.20;;;;;;4967195;28;20795;-18
2023/07/16 05:58:16;;;;;;;6.30;2.90;;;18.80;77.20;;;;;;4957460;28;20030;-18
2023/07/16 06:00:41;;;;;;;5.97;2.92;;;18.90;77.10;;;;;;4934379;28;20239;-18
2023/07/16 06:03:07;;;;;;;5.22;2.55;;;18.90;77.20;;;;;;4960874;28;20030;-19
2023/07/16 06:05:34;;;;;;;5.27;2.83;;;18.90;77.40;;;;;;4941969;28;20715;-18
2023/07/16 06:08:01;;;;;;;6.32;3.30;;;19.00;77.60;;;;;;4954800;28;20083;-18
2023/07/16 06:10:27;;;;;;;8.40;3.03;;;19.00;77.30;;;;;;4964187;28;20023;-19
2023/07/16 06:12:53;;;;;;;6.65;2.95;;;19.00;77.40;;;;;;4968771;28;20027;-18
2023/07/16 06:15:18;;;;;;;6.23;2.87;;;19.10;77.60;;;;;;4937299;28;20528;-18
2023/07/16 06:17:44;;;;;;;5.68;2.80;;;19.10;77.60;;;;;;4965551;28;20062;-18
2023/07/16 06:20:10;;;;;;;4.97;2.73;;;19.10;77.50;;;;;;4970318;28;20117;-18
2023/07/16 06:22:37;;;;;;;7.13;3.28;;;19.10;77.40;;;;;;4953161;28;20214;-18
2023/07/16 06:25:04;;;;;;;4.57;2.50;;;19.20;77.30;;;;;;4968355;28;20078;-19
2023/07/16 06:27:30;;;;;;;6.07;3.03;;;19.20;77.30;;;;;;4951963;28;21190;-19
2023/07/16 06:29:56;;;;;;;8.40;3.63;;;19.20;77.40;;;;;;4923788;28;20065;-18
2023/07/16 06:32:21;;;;;;;6.53;2.97;;;19.30;77.30;;;;;;4962542;28;20494;-18
2023/07/16 06:34:47;;;;;;;6.57;3.60;;;19.30;77.30;;;;;;4958405;28;20027;-19
2023/07/16 06:37:13;;;;;;;6.83;3.40;;;19.30;77.10;;;;;;4955386;28;20033;-19
2023/07/16 06:39:38;;;;;;;6.73;3.37;;;19.40;77.30;;;;;;4954574;28;20335;-18
2023/07/16 06:42:04;;;;;;;6.78;3.60;;;19.40;77.00;;;;;;4954110;28;20500;-19
2023/07/16 06:44:30;;;;;;;7.55;3.08;;;19.50;77.00;;;;;;4964118;28;20035;-18
2023/07/16 06:46:57;;;;;;;8.83;3.23;;;19.50;77.20;;;;;;4934507;28;20042;-18
2023/07/16 06:49:23;;;;;;;7.95;3.42;;;19.60;77.30;;;;;;4936598;28;20022;-19
2023/07/16 06:51:49;;;;;;;6.13;3.25;;;19.60;77.20;;;;;;4950040;28;20524;-18
2023/07/16 06:54:15;;;;;;;5.57;3.00;;;19.60;77.10;;;;;;4964056;28;20034;-18
2023/07/16 06:56:40;;;;;;;7.07;3.40;;;19.70;77.10;;;;;;4945229;28;21217;-18
2023/07/16 06:59:06;;;;;;;5.47;2.88;;;19.70;77.10;;;;;;4977331;28;20030;-19
2023/07/16 07:01:32;;;;;;;5.50;2.60;;;19.70;77.20;;;;;;4932701;28;20208;-19
2023/07/16 07:03:57;;;;;;;7.32;3.22;;;19.80;77.40;;;;;;4955928;28;20026;-19
2023/07/16 07:06:23;;;;;;;8.50;3.40;;;19.90;77.50;;;;;;4965252;28;20038;-19
2023/07/16 07:08:49;;;;;;;6.77;3.23;;;20.00;77.40;;;;;;4963315;28;20039;-19
2023/07/16 07:11:14;;;;;;;7.00;3.50;;;20.00;77.20;;;;;;4960348;28;20404;-19
2023/07/16 07:13:40;;;;;;;6.10;3.08;;;20.10;77.10;;;;;;4967595;28;20069;-19
2023/07/16 07:16:06;;;;;;;6.93;2.90;;;20.10;77.20;;;;;;4933460;28;20034;-19
2023/07/16 07:18:32;;;;;;;6.97;3.43;;;20.20;77.10;;;;;;4961438;28;20030;-19
2023/07/16 07:20:57;;;;;;;8.00;4.00;;;20.30;76.70;;;;;;4954953;28;20281;-19
2023/07/16 07:23:23;;;;;;;9.38;3.50;;;20.30;76.70;;;;;;4966069;28;20323;-19
2023/07/16 07:25:52;;;;;;;5.93;2.90;;;20.40;76.70;;;;;;4963133;28;20038;-19
2023/07/16 07:28:18;;;;;;;5.57;2.83;;;20.50;76.60;;;;;;4960530;28;20361;-19
2023/07/16 07:30:44;;;;;;;6.13;2.95;;;20.50;77.00;;;;;;4955038;28;20034;-19
2023/07/16 07:33:11;;;;;;;4.73;2.60;;;20.60;76.80;;;;;;4931620;28;20057;-19
2023/07/16 07:35:36;;;;;;;6.10;2.80;;;20.60;76.60;;;;;;4975671;28;20513;-19
2023/07/16 07:38:02;;;;;;;6.28;3.10;;;20.70;76.50;;;;;;4950692;28;20037;-19
2023/07/16 07:40:28;;;;;;;5.57;2.70;;;20.80;76.50;;;;;;4964500;28;20027;-19
2023/07/16 07:42:53;;;;;;;6.78;3.17;;;20.90;76.50;;;;;;4962056;28;20034;-19
2023/07/16 07:45:19;;;;;;;5.80;3.10;;;20.90;76.50;;;;;;4956337;28;20237;-19
2023/07/16 07:47:45;;;;;;;5.20;2.80;;;21.00;76.70;;;;;;4965373;28;20487;-19
2023/07/16 07:50:11;;;;;;;5.47;3.00;;;21.10;77.00;;;;;;4946424;28;20197;-19
2023/07/16 07:52:37;;;;;;;5.68;2.97;;;21.20;77.30;;;;;;4958901;28;20080;-19
2023/07/16 07:55:03;;;;;;;6.82;2.97;;;21.30;77.30;;;;;;4962286;28;20039;-19
2023/07/16 07:57:29;;;;;;;6.63;3.42;;;21.50;77.10;;;;;;4967977;28;20034;-19
2023/07/16 07:59:58;;;;;;;5.70;3.40;;;21.60;76.50;;;;;;4961615;28;20054;-19
2023/07/16 08:02:24;;;;;;;7.63;3.30;;;21.70;76.30;;;;;;4956667;28;20595;-19
2023/07/16 08:04:54;;;;;;;4.25;2.67;;;21.80;76.40;;;;;;4937467;28;20019;-19
2023/07/16 08:07:21;;;;;;;5.82;2.80;;;22.00;76.90;;;;;;4963465;28;20231;-19
2023/07/16 08:09:47;;;;;;;4.53;2.70;;;22.10;77.00;;;;;;4958857;28;20456;-19
2023/07/16 08:12:14;;;;;;;8.00;3.35;;;22.30;77.70;;;;;;4962119;28;20238;-19
2023/07/16 08:14:40;;;;;;;6.55;3.10;;;22.60;78.10;;;;;;4971025;28;20254;-19
2023/07/16 08:17:05;;;;;;;6.00;3.05;;;22.90;78.30;;;;;;4964541;28;20497;-19
2023/07/16 08:19:31;;;;;;;6.77;3.27;;;23.20;79.10;;;;;;4922243;28;20529;-19
2023/07/16 08:21:57;;;;;;;4.53;2.70;;;23.60;78.50;;;;;;4962144;28;20109;-19
2023/07/16 08:24:24;;;;;;;5.93;2.90;;;23.90;76.80;;;;;;4954663;28;20031;-19
2023/07/16 08:26:49;;;;;;;4.47;2.85;;;24.10;74.60;;;;;;4965205;28;20038;-19
2023/07/16 08:29:15;;;;;;;8.68;3.30;;;24.30;75.00;;;;;;4966038;28;20026;-19
2023/07/16 08:31:41;;;;;;;5.70;3.20;;;24.50;74.80;;;;;;4939751;28;20116;-19
2023/07/16 08:34:07;;;;;;;5.30;2.80;;;24.60;75.00;;;;;;4967063;28;20026;-19
2023/07/16 08:36:33;;;;;;;4.88;2.83;;;24.90;74.90;;;;;;4915838;28;20415;-19
2023/07/16 08:38:59;;;;;;;6.53;3.03;;;25.10;75.50;;;;;;4958253;28;20110;-19
2023/07/16 08:41:25;;;;;;;5.30;2.90;;;25.40;74.40;;;;;;4963323;28;20034;-19
2023/07/16 08:43:51;;;;;;;4.20;2.92;;;25.60;73.90;;;;;;4969644;28;20474;-19
2023/07/16 08:46:17;;;;;;;5.55;2.95;;;25.90;73.50;;;;;;4974908;28;20031;-19
2023/07/16 08:48:45;;;;;;;4.80;2.50;;;26.10;73.10;;;;;;4965158;28;20729;-19
2023/07/16 08:51:14;;;;;;;5.45;2.60;;;26.30;72.10;;;;;;4982101;28;20027;-19
2023/07/16 08:53:39;;;;;;;4.13;2.22;;;26.40;71.30;;;;;;4952357;28;20049;-19
2023/07/16 08:56:05;;;;;;;3.93;2.40;;;26.40;69.50;;;;;;4968345;28;20069;-19
2023/07/16 08:58:31;;;;;;;5.13;2.30;;;26.30;68.00;;;;;;4966059;28;20296;-19
2023/07/16 09:00:59;;;;;;;5.10;2.53;;;26.20;67.80;;;;;;4974509;28;20957;-19
2023/07/16 09:03:25;;;;;;;4.63;2.50;;;26.00;67.30;;;;;;4968577;28;20034;-19
2023/07/16 09:05:51;;;;;;;5.00;2.20;;;25.80;67.10;;;;;;4963235;28;20045;-19
2023/07/16 09:08:16;;;;;;;4.60;2.35;;;25.60;67.10;;;;;;4953963;28;20058;-19
2023/07/16 09:10:43;;;;;;;3.77;2.20;;;25.40;66.80;;;;;;4959982;28;20185;-19
2023/07/16 09:13:09;;;;;;;3.60;2.17;;;25.20;67.20;;;;;;4968485;28;20880;-19
2023/07/16 09:15:35;;;;;;;4.55;2.00;;;25.10;67.50;;;;;;4968417;28;20576;-18
2023/07/16 09:18:01;;;;;;;4.13;2.30;;;25.00;67.80;;;;;;4960076;28;20546;-19
2023/07/16 09:20:28;;;;;;;4.28;2.30;;;24.90;67.70;;;;;;4962276;28;20042;-19
2023/07/16 09:22:57;;;;;;;4.60;2.47;;;24.80;68.60;;;;;;4936110;28;20038;-19
2023/07/16 09:25:42;;;;;;;3.78;2.20;;;24.80;68.30;;;;;;4960719;28;20030;-19
2023/07/16 09:28:08;;;;;;;3.53;2.08;;;24.80;67.40;;;;;;4970074;28;20061;-19
2023/07/16 09:30:34;;;;;;;3.88;2.22;;;24.70;68.70;;;;;;4976025;28;20113;-18
2023/07/16 09:33:17;;;;;;;5.47;2.70;;;24.80;68.40;;;;;;4958665;28;20027;-19
2023/07/16 09:35:43;;;;;;;4.38;2.47;;;24.70;66.60;;;;;;4967123;28;20655;-19
2023/07/16 09:38:10;;;;;;;4.30;2.20;;;24.70;67.60;;;;;;4937266;28;20153;-19
2023/07/16 09:40:42;;;;;;;3.33;2.20;;;24.70;67.50;;;;;;4957201;28;20224;-19
2023/07/16 09:43:08;;;;;;;5.40;2.30;;;24.60;66.90;;;;;;4970423;28;20748;-19
2023/07/16 09:45:34;;;;;;;4.43;2.60;;;24.50;66.60;;;;;;4963166;28;20031;-19
2023/07/16 09:48:00;;;;;;;4.50;2.13;;;24.40;66.10;;;;;;4958466;28;20844;-19
2023/07/16 09:50:34;;;;;;;4.50;2.40;;;24.30;66.40;;;;;;4962946;28;20030;-19
2023/07/16 09:53:00;;;;;;;4.65;2.17;;;24.20;66.40;;;;;;4968212;28;20435;-19
2023/07/16 09:55:25;;;;;;;4.87;2.20;;;24.10;66.50;;;;;;4930447;28;20037;-19
2023/07/16 09:57:56;;;;;;;5.60;2.38;;;24.00;66.20;;;;;;4966438;28;20105;-19
2023/07/16 10:00:24;;;;;;;4.93;2.38;;;23.90;65.60;;;;;;4966513;28;20026;-19
2023/07/16 10:02:54;;;;;;;4.13;2.10;;;23.80;65.80;;;;;;4958042;28;20042;-19
2023/07/16 10:05:25;;;;;;;4.15;2.20;;;23.70;65.70;;;;;;4978996;28;20105;-19
2023/07/16 10:07:53;;;;;;;3.78;1.95;;;23.50;65.60;;;;;;4968586;28;20113;-19
2023/07/16 10:10:20;;;;;;;3.35;1.95;;;23.50;66.60;;;;;;4937611;28;22891;-19
2023/07/16 10:12:56;;;;;;;5.82;2.20;;;23.50;67.00;;;;;;4959063;28;20221;-19
2023/07/16 10:15:29;;;;;;;4.10;2.30;;;23.40;66.30;;;;;;4966191;28;20041;-19
2023/07/16 10:17:56;;;;;;;4.05;2.35;;;23.40;66.80;;;;;;4965021;28;20394;-19
2023/07/16 10:20:33;;;;;;;5.28;2.55;;;23.40;67.90;;;;;;4961693;28;20034;-18
2023/07/16 10:23:12;;;;;;;3.80;2.33;;;23.50;67.50;;;;;;4949408;28;20082;-19
2023/07/16 10:25:37;;;;;;;5.03;2.22;;;23.60;68.10;;;;;;4932674;28;20205;-19
2023/07/16 10:28:03;;;;;;;6.37;2.90;;;23.70;68.30;;;;;;4965908;28;20034;-19
2023/07/16 10:30:30;;;;;;;4.40;2.55;;;23.70;68.10;;;;;;4979314;28;20069;-19
2023/07/16 10:32:56;;;;;;;4.18;2.20;;;23.80;68.10;;;;;;4970637;28;20666;-18
2023/07/16 10:35:22;;;;;;;3.67;2.33;;;23.90;68.40;;;;;;4957537;28;20030;-19
2023/07/16 10:37:48;;;;;;;3.72;2.40;;;23.90;68.10;;;;;;4963743;28;20377;-19
2023/07/16 10:40:14;;;;;;;4.00;2.30;;;24.00;67.70;;;;;;4938171;28;20165;-19
2023/07/16 10:42:46;;;;;;;4.17;2.30;;;24.00;67.60;;;;;;4963156;28;20637;-19
2023/07/16 10:45:12;;;;;;;4.28;2.42;;;24.00;67.40;;;;;;4968988;28;20101;-18
2023/07/16 10:47:40;;;;;;;4.63;2.20;;;24.00;67.30;;;;;;4966035;28;20022;-18
2023/07/16 10:50:09;;;;;;;3.75;2.03;;;24.00;67.50;;;;;;4963927;28;20027;-18
2023/07/16 10:52:37;;;;;;;3.10;2.00;;;24.00;67.30;;;;;;4956460;28;20031;-19
2023/07/16 10:55:03;;;;;;;4.07;2.40;;;24.00;67.60;;;;;;4934398;28;20065;-18
2023/07/16 10:57:29;;;;;;;4.00;2.20;;;24.00;67.70;;;;;;4956406;28;20565;-19
2023/07/16 10:59:58;;;;;;;5.45;2.42;;;24.00;67.70;;;;;;4968926;28;20018;-19
2023/07/16 11:02:25;;;;;;;5.05;2.30;;;24.10;67.20;;;;;;4964738;28;20133;-19
2023/07/16 11:04:57;;;;;;;4.87;2.30;;;24.10;67.30;;;;;;4964326;28;20026;-19
2023/07/16 11:07:23;;;;;;;4.18;2.10;;;24.10;67.50;;;;;;4958736;28;20038;-19
2023/07/16 11:09:53;;;;;;;4.68;2.25;;;24.20;67.70;;;;;;4963085;28;20026;-19
2023/07/16 11:12:23;;;;;;;3.97;2.10;;;24.20;67.40;;;;;;4937394;28;20592;-19
2023/07/16 11:14:51;;;;;;;4.03;1.85;;;24.20;67.10;;;;;;4962886;28;20030;-19
2023/07/16 11:17:17;;;;;;;4.10;2.00;;;24.20;66.70;;;;;;4961494;28;20040;-19
2023/07/16 11:19:47;;;;;;;4.68;2.13;;;24.20;66.60;;;;;;4968393;28;20019;-19
2023/07/16 11:22:14;;;;;;;3.70;1.88;;;24.10;65.90;;;;;;4955966;28;20513;-18
2023/07/16 11:24:41;;;;;;;4.15;2.15;;;24.10;66.50;;;;;;4968534;28;20052;-19
2023/07/16 11:27:14;;;;;;;3.28;1.88;;;24.00;66.80;;;;;;4934186;28;20165;-19
2023/07/16 11:29:41;;;;;;;4.73;2.13;;;24.00;67.00;;;;;;4941624;28;20070;-19
2023/07/16 11:32:08;;;;;;;3.45;2.10;;;24.00;68.30;;;;;;4963475;28;20034;-19
2023/07/16 11:34:33;;;;;;;4.47;2.20;;;24.20;69.00;;;;;;4968277;28;20635;-19
2023/07/16 11:37:12;;;;;;;3.47;2.10;;;24.30;68.90;;;;;;4965084;28;20061;-19
2023/07/16 11:39:38;;;;;;;4.28;2.20;;;24.50;67.70;;;;;;4958087;28;20031;-19
2023/07/16 11:42:04;;;;;;;4.13;1.95;;;24.70;68.70;;;;;;4938064;28;20033;-19
2023/07/16 11:44:36;;;;;;;3.47;2.00;;;24.70;68.20;;;;;;4973728;28;20030;-19
2023/07/16 11:47:03;;;;;;;2.92;1.77;;;24.90;67.40;;;;;;4979170;28;20101;-19
2023/07/16 11:49:29;;;;;;;2.70;1.70;;;25.00;68.20;;;;;;4964519;28;20541;-18
2023/07/16 11:51:54;;;;;;;1.88;1.40;;;25.10;68.20;;;;;;4962682;28;20121;-19
2023/07/16 11:54:20;;;;;;;3.03;1.63;;;25.20;67.30;;;;;;4954492;28;21458;-19
2023/07/16 11:56:47;;;;;;;2.50;1.60;;;25.20;66.00;;;;;;4963228;28;20422;-19
2023/07/16 11:59:13;;;;;;;2.30;1.50;;;25.30;66.00;;;;;;4943309;28;20133;-19
2023/07/16 12:01:39;;;;;;;3.47;1.63;;;25.30;66.20;;;;;;4948111;28;20075;-19
2023/07/16 12:04:05;;;;;;;3.23;1.67;;;25.30;67.10;;;;;;4960445;28;20289;-19
2023/07/16 12:06:30;;;;;;;3.83;1.70;;;25.40;69.10;;;;;;4965182;28;20046;-19
2023/07/16 12:08:56;;;;;;;3.27;1.67;;;25.70;69.50;;;;;;4972737;28;20041;-19
2023/07/16 12:11:22;;;;;;;3.67;1.80;;;25.90;69.40;;;;;;4971198;28;20508;-19
2023/07/16 12:13:48;;;;;;;3.20;1.70;;;26.10;67.60;;;;;;4938646;28;20022;-19
2023/07/16 12:16:13;;;;;;;2.97;1.67;;;26.30;67.20;;;;;;4954088;28;20265;-19
2023/07/16 12:18:39;;;;;;;4.07;2.20;;;26.30;66.10;;;;;;4961668;28;20030;-19
2023/07/16 12:21:06;;;;;;;5.70;2.20;;;26.30;65.00;;;;;;4959747;28;20109;-19
2023/07/16 12:23:32;;;;;;;3.85;1.98;;;26.30;65.40;;;;;;4964012;28;20030;-19
2023/07/16 12:25:58;;;;;;;3.83;1.80;;;26.30;65.60;;;;;;4956045;28;20487;-19
2023/07/16 12:28:23;;;;;;;2.92;2.00;;;26.40;65.30;;;;;;4937707;28;20123;-19
2023/07/16 12:30:49;;;;;;;3.47;1.90;;;26.40;66.80;;;;;;4958104;28;20030;-19
2023/07/16 12:33:15;;;;;;;2.87;1.87;;;26.60;67.50;;;;;;4976378;28;20041;-19
2023/07/16 12:35:40;;;;;;;3.83;2.13;;;26.80;67.40;;;;;;4967441;28;20263;-19
2023/07/16 12:38:06;;;;;;;3.40;1.90;;;27.10;66.70;;;;;;4961302;28;20481;-19
2023/07/16 12:40:39;;;;;;;4.07;1.83;;;27.20;65.60;;;;;;4971318;28;20026;-19
2023/07/16 12:43:05;;;;;;;3.37;1.80;;;27.20;64.20;;;;;;4959605;28;20039;-19
2023/07/16 12:45:31;;;;;;;2.90;1.73;;;27.20;63.00;;;;;;4929574;28;20538;-19